CheckWX is a tool to help pilots better visualize weather data.  It is not intended as a substitute for an official pre-flight weather briefing.

05:22:02 UTC

KCPU METAR
Calaveras Co-Maury Rasmussen Field Airport
San Andreas, California, USA
Current

27 mins ago

KCPU 170455Z AUTO 10003KT 10SM CLR 13/10 A3000 RMK AO2 T01290095
Observed
Sep-17 @ 04:55 UTC
Wind
  • 100° at 3 KTS
Visibility
10 SM
Flight Rules
VFR
Cloud Levels
  • Clear skies
Temperature
13°C / 55°F
Dewpoint
10°C / 50°F
Humidity
82%
Altimeter
30" Hg
Pressure
1015.92 hPa
Previous

47 mins ago

KCPU 170435Z AUTO 03003KT 10SM CLR 13/10 A3000 RMK AO2 T01330095
Observed
Sep-17 @ 04:35 UTC
Wind
  • 030° at 3 KTS
Visibility
10 SM
Flight Rules
VFR
Cloud Levels
  • Clear skies
Temperature
13°C / 55°F
Dewpoint
10°C / 50°F
Humidity
82%
Altimeter
30" Hg
Pressure
1015.92 hPa
Previous

1 hour ago

KCPU 170415Z AUTO 00000KT 10SM CLR 14/09 A2999 RMK AO2 T01410093
Observed
Sep-17 @ 04:15 UTC
Visibility
10 SM
Flight Rules
VFR
Cloud Levels
  • Clear skies
Temperature
14°C / 57°F
Dewpoint
C / 48°F
Humidity
72%
Altimeter
29.99" Hg
Pressure
1015.62 hPa